createdAt,value
2022-11-28T00:00:44.707Z,100975.80
2022-11-28T00:03:32.801Z,100976.60
2022-11-28T00:06:08.860Z,100976.80
2022-11-28T00:08:41.781Z,100976.00
2022-11-28T00:11:17.591Z,100971.60
2022-11-28T00:13:50.513Z,100969.00
2022-11-28T00:16:25.059Z,100963.00
2022-11-28T00:19:00.220Z,100959.00
2022-11-28T00:21:32.958Z,100955.80
2022-11-28T00:24:06.436Z,100950.20
2022-11-28T00:26:41.735Z,100940.80
2022-11-28T00:29:14.637Z,100940.20
2022-11-28T00:31:47.187Z,100936.00
2022-11-28T00:34:19.786Z,100940.40
2022-11-28T00:36:52.678Z,100934.60
2022-11-28T00:39:25.593Z,100931.00
2022-11-28T00:41:58.333Z,100934.00
2022-11-28T00:44:30.857Z,100934.60
2022-11-28T00:47:03.512Z,100933.80
2022-11-28T00:49:36.159Z,100932.60
2022-11-28T00:52:08.870Z,100923.20
2022-11-28T00:54:42.100Z,100926.40
2022-11-28T00:57:14.814Z,100928.80
2022-11-28T00:59:47.316Z,100929.40
2022-11-28T01:02:20.016Z,100926.00
2022-11-28T01:04:52.554Z,100931.20
2022-11-28T01:07:25.089Z,100929.40
2022-11-28T01:09:57.611Z,100919.00
2022-11-28T01:12:30.043Z,100918.40
2022-11-28T01:15:02.620Z,100915.20
2022-11-28T01:17:35.103Z,100914.20
2022-11-28T01:20:12.456Z,100908.20
2022-11-28T01:22:44.928Z,100910.00
2022-11-28T01:25:17.501Z,100904.60
2022-11-28T01:27:49.984Z,100901.40
2022-11-28T01:30:22.473Z,100901.00
2022-11-28T01:32:58.039Z,100894.60
2022-11-28T01:35:30.786Z,100885.40
2022-11-28T01:38:03.263Z,100881.00
2022-11-28T01:40:45.354Z,100881.40
2022-11-28T01:43:17.916Z,100881.20
2022-11-28T01:45:50.384Z,100876.40
2022-11-28T01:48:27.858Z,100872.60
2022-11-28T01:51:04.200Z,100874.00
2022-11-28T01:53:41.107Z,100867.00
2022-11-28T01:56:19.033Z,100870.40
2022-11-28T01:58:55.571Z,100860.00
2022-11-28T02:01:28.532Z,100859.80
2022-11-28T02:04:01.773Z,100854.40
2022-11-28T02:06:35.280Z,100849.80
2022-11-28T02:09:10.939Z,100846.40
2022-11-28T02:12:12.880Z,100852.60
2022-11-28T02:15:20.216Z,100846.20
2022-11-28T02:18:11.293Z,100839.00
2022-11-28T02:21:29.369Z,100837.80
2022-11-28T02:24:54.027Z,100826.80
2022-11-28T02:27:54.156Z,100818.20
2022-11-28T02:30:35.392Z,100822.80
2022-11-28T02:33:22.573Z,100814.80
2022-11-28T02:36:04.869Z,100817.60
2022-11-28T02:38:49.693Z,100823.20
2022-11-28T02:41:32.710Z,100822.40
2022-11-28T02:44:14.230Z,100821.20
2022-11-28T02:46:54.503Z,100826.40
2022-11-28T02:49:34.243Z,100819.80
2022-11-28T02:52:13.438Z,100819.20
2022-11-28T02:54:47.148Z,100825.40
2022-11-28T02:57:19.783Z,100820.80
2022-11-28T02:59:55.599Z,100819.20
2022-11-28T03:02:31.568Z,100815.00
2022-11-28T03:05:14.072Z,100810.00
2022-11-28T03:08:22.967Z,100810.60
2022-11-28T03:11:04.921Z,100812.60
2022-11-28T03:13:48.796Z,100810.40
2022-11-28T03:16:30.622Z,100809.80
2022-11-28T03:19:12.062Z,100805.60
2022-11-28T03:21:50.195Z,100800.00
2022-11-28T03:24:33.711Z,100801.00
2022-11-28T03:27:11.551Z,100801.20
2022-11-28T03:29:49.848Z,100797.80
2022-11-28T03:32:27.467Z,100796.40
2022-11-28T03:35:11.885Z,100801.40
2022-11-28T03:37:49.408Z,100802.20
2022-11-28T03:40:27.688Z,100801.40
2022-11-28T03:43:06.346Z,100798.40
2022-11-28T03:45:43.047Z,100794.60
2022-11-28T03:48:19.428Z,100794.20
2022-11-28T03:50:59.509Z,100786.00
2022-11-28T03:53:37.416Z,100787.00
2022-11-28T03:56:16.068Z,100781.80
2022-11-28T03:58:55.951Z,100779.20
2022-11-28T04:01:37.960Z,100773.40
2022-11-28T04:04:21.454Z,100777.80
2022-11-28T04:06:59.792Z,100774.80
2022-11-28T04:09:44.222Z,100772.00
2022-11-28T04:12:25.164Z,100774.40
2022-11-28T04:15:01.887Z,100765.20
2022-11-28T04:17:44.528Z,100767.00
2022-11-28T04:20:25.185Z,100772.40
2022-11-28T04:23:02.191Z,100766.80
2022-11-28T04:25:36.770Z,100764.80
2022-11-28T04:28:16.207Z,100764.20
2022-11-28T04:30:51.945Z,100763.20
2022-11-28T04:33:28.100Z,100759.20
2022-11-28T04:36:02.877Z,100753.00
2022-11-28T04:38:37.041Z,100752.80
2022-11-28T04:41:16.041Z,100747.00
2022-11-28T04:43:54.771Z,100749.20
2022-11-28T04:46:32.727Z,100753.80
2022-11-28T04:49:05.373Z,100759.00
2022-11-28T04:51:46.032Z,100757.80
2022-11-28T04:54:25.588Z,100761.40
2022-11-28T04:57:03.301Z,100755.40
2022-11-28T04:59:35.947Z,100752.80
2022-11-28T05:02:09.891Z,100749.40
2022-11-28T05:04:44.774Z,100745.00
2022-11-28T05:07:17.707Z,100750.60
2022-11-28T05:09:51.015Z,100751.60
2022-11-28T05:12:23.582Z,100746.40
2022-11-28T05:14:56.244Z,100752.40
2022-11-28T05:17:28.752Z,100749.20
2022-11-28T05:20:01.721Z,100754.00
2022-11-28T05:22:34.274Z,100753.20
2022-11-28T05:25:07.539Z,100755.40
2022-11-28T05:27:40.057Z,100757.80
2022-11-28T05:30:16.167Z,100756.00
2022-11-28T05:32:49.219Z,100752.40
2022-11-28T05:35:21.777Z,100756.80
2022-11-28T05:37:54.287Z,100755.60
2022-11-28T05:40:26.799Z,100747.60
2022-11-28T05:42:59.283Z,100759.40
2022-11-28T05:45:31.815Z,100759.80
2022-11-28T05:48:04.356Z,100755.60
2022-11-28T05:50:40.141Z,100748.80
2022-11-28T05:53:13.515Z,100752.40
2022-11-28T05:55:46.554Z,100752.40
2022-11-28T05:58:19.028Z,100746.00
2022-11-28T06:00:51.693Z,100749.40
2022-11-28T06:03:24.215Z,100741.20
2022-11-28T06:05:56.774Z,100736.80
2022-11-28T06:08:29.302Z,100734.40
2022-11-28T06:11:02.522Z,100733.80
2022-11-28T06:13:35.184Z,100730.00
2022-11-28T06:16:11.828Z,100734.80
2022-11-28T06:18:44.418Z,100732.60
2022-11-28T06:21:17.550Z,100730.80
2022-11-28T06:23:50.083Z,100734.80
2022-11-28T06:26:25.473Z,100723.60
2022-11-28T06:28:58.622Z,100729.40
2022-11-28T06:31:32.437Z,100719.80
2022-11-28T06:34:04.915Z,100717.40
2022-11-28T06:36:37.493Z,100716.60
2022-11-28T06:39:11.211Z,100716.60
2022-11-28T06:41:44.238Z,100712.60
2022-11-28T06:44:18.868Z,100708.00
2022-11-28T06:46:51.546Z,100709.40
2022-11-28T06:49:24.288Z,100711.40
2022-11-28T06:51:57.193Z,100709.40
2022-11-28T06:54:30.026Z,100713.20
2022-11-28T06:57:02.687Z,100709.20
2022-11-28T06:59:35.297Z,100710.80
2022-11-28T07:02:08.322Z,100707.80
2022-11-28T07:04:41.311Z,100709.80
2022-11-28T07:07:16.475Z,100716.40
2022-11-28T07:09:49.382Z,100715.20
2022-11-28T07:12:21.932Z,100713.60
2022-11-28T07:14:54.539Z,100716.00
2022-11-28T07:17:27.352Z,100712.60
2022-11-28T07:19:59.931Z,100713.80
2022-11-28T07:22:32.405Z,100716.80
2022-11-28T07:25:05.018Z,100714.60
2022-11-28T07:27:37.480Z,100711.40
2022-11-28T07:30:12.714Z,100706.20
2022-11-28T07:32:45.336Z,100703.60
2022-11-28T07:35:17.976Z,100703.80
2022-11-28T07:37:50.590Z,100700.00
2022-11-28T07:40:23.255Z,100700.40
2022-11-28T07:42:55.956Z,100701.00
2022-11-28T07:45:47.149Z,100701.00
2022-11-28T07:48:21.088Z,100697.00
2022-11-28T07:50:53.589Z,100694.00
2022-11-28T07:53:26.168Z,100695.60
2022-11-28T07:56:01.861Z,100692.20
2022-11-28T07:58:34.872Z,100693.60
2022-11-28T08:01:15.524Z,100694.20
2022-11-28T08:03:48.730Z,100693.40
2022-11-28T08:06:23.772Z,100692.20
2022-11-28T08:08:58.378Z,100688.20
2022-11-28T08:11:31.836Z,100682.80
2022-11-28T08:14:04.732Z,100678.80
2022-11-28T08:16:41.374Z,100675.40
2022-11-28T08:19:14.241Z,100681.20
2022-11-28T08:21:46.696Z,100675.40
2022-11-28T08:24:19.272Z,100676.80
2022-11-28T08:26:51.730Z,100679.00
2022-11-28T08:29:24.225Z,100674.20
2022-11-28T08:31:56.866Z,100676.60
2022-11-28T08:34:29.666Z,100675.80
2022-11-28T08:37:02.211Z,100674.80
2022-11-28T08:39:34.916Z,100664.60
2022-11-28T08:42:07.984Z,100667.60
2022-11-28T08:44:40.820Z,100663.60
2022-11-28T08:47:13.404Z,100665.40
2022-11-28T08:49:46.225Z,100656.00
2022-11-28T08:52:19.041Z,100646.60
2022-11-28T08:54:51.563Z,100645.80
2022-11-28T08:57:24.322Z,100648.40
2022-11-28T08:59:56.922Z,100643.40
2022-11-28T09:02:29.616Z,100648.20
2022-11-28T09:05:02.922Z,100647.20
2022-11-28T09:07:35.435Z,100642.20
2022-11-28T09:10:10.336Z,100637.20
2022-11-28T09:12:43.184Z,100636.60
2022-11-28T09:15:16.085Z,100639.60
2022-11-28T09:17:48.666Z,100639.40
2022-11-28T09:20:21.968Z,100632.80
2022-11-28T09:22:54.477Z,100631.40
2022-11-28T09:25:27.168Z,100625.00
2022-11-28T09:28:01.437Z,100626.20
2022-11-28T09:30:34.201Z,100625.40
2022-11-28T09:33:07.351Z,100626.00
2022-11-28T09:35:42.147Z,100626.20
2022-11-28T09:38:14.656Z,100619.60
2022-11-28T09:40:49.125Z,100619.40
2022-11-28T09:43:30.111Z,100615.80
2022-11-28T09:46:07.386Z,100606.40
2022-11-28T09:48:44.382Z,100605.40
2022-11-28T09:51:27.141Z,100606.00
2022-11-28T09:54:09.255Z,100602.00
2022-11-28T09:56:42.163Z,100603.00
2022-11-28T09:59:28.557Z,100591.20
2022-11-28T10:02:16.388Z,100578.40
2022-11-28T10:05:00.107Z,100568.00
2022-11-28T10:07:44.561Z,100562.00
2022-11-28T10:10:30.297Z,100555.40
2022-11-28T10:13:14.728Z,100554.20
2022-11-28T10:16:02.739Z,100547.80
2022-11-28T10:18:44.856Z,100536.80
2022-11-28T10:21:29.492Z,100545.40
2022-11-28T10:24:06.062Z,100544.40
2022-11-28T10:26:40.151Z,100540.60
2022-11-28T10:29:26.775Z,100527.60
2022-11-28T10:32:02.902Z,100519.60
2022-11-28T10:34:42.513Z,100514.60
2022-11-28T10:37:20.984Z,100520.20
2022-11-28T10:39:54.317Z,100517.80
2022-11-28T10:42:33.946Z,100520.40
2022-11-28T10:45:19.656Z,100517.40
2022-11-28T10:48:38.668Z,100518.80
2022-11-28T10:51:21.291Z,100512.40
2022-11-28T10:54:11.590Z,100512.80
2022-11-28T10:56:52.722Z,100511.40
2022-11-28T10:59:37.331Z,100514.80
2022-11-28T11:02:31.043Z,100509.80
2022-11-28T11:05:03.683Z,100506.80
2022-11-28T11:07:37.225Z,100510.20
2022-11-28T11:10:21.017Z,100503.80
2022-11-28T11:12:54.783Z,100500.40
2022-11-28T11:15:33.734Z,100503.00
2022-11-28T11:18:22.137Z,100499.20
2022-11-28T11:21:08.509Z,100499.20
2022-11-28T11:23:41.047Z,100493.20
2022-11-28T11:26:24.548Z,100491.00
2022-11-28T11:28:57.571Z,100493.60
2022-11-28T11:31:33.290Z,100490.20
2022-11-28T11:34:17.096Z,100492.80
2022-11-28T11:36:50.128Z,100495.00
2022-11-28T11:39:26.557Z,100489.00
2022-11-28T11:42:23.343Z,100486.60
2022-11-28T11:44:58.712Z,100481.00
2022-11-28T11:47:46.209Z,100481.60
2022-11-28T11:50:24.550Z,100477.80
2022-11-28T11:53:15.278Z,100479.00
2022-11-28T11:55:53.426Z,100473.40
2022-11-28T11:58:30.367Z,100475.00
2022-11-28T12:01:04.426Z,100475.40
2022-11-28T12:03:42.013Z,100474.60
2022-11-28T12:06:23.215Z,100466.40
2022-11-28T12:09:02.647Z,100465.60
2022-11-28T12:11:45.469Z,100469.40
2022-11-28T12:14:33.816Z,100464.20
2022-11-28T12:20:37.745Z,100458.00
2022-11-28T12:23:26.146Z,100460.40
2022-11-28T12:26:10.741Z,100458.00
2022-11-28T12:29:01.354Z,100459.20
2022-11-28T12:31:46.113Z,100461.40
2022-11-28T12:34:31.701Z,100461.40
2022-11-28T12:37:16.376Z,100464.00
2022-11-28T12:40:01.038Z,100460.60
2022-11-28T12:43:03.098Z,100461.20
2022-11-28T12:45:48.859Z,100456.80
2022-11-28T12:48:40.569Z,100458.80
2022-11-28T12:51:24.502Z,100458.80
2022-11-28T12:54:17.931Z,100460.60
2022-11-28T12:57:03.482Z,100455.60
2022-11-28T12:59:44.796Z,100456.60
2022-11-28T13:02:33.320Z,100457.60
2022-11-28T13:05:32.584Z,100448.80
2022-11-28T13:08:48.260Z,100445.60
2022-11-28T13:11:38.777Z,100445.20
2022-11-28T13:14:23.396Z,100446.40
2022-11-28T13:17:13.662Z,100446.00
2022-11-28T13:19:56.357Z,100443.60
2022-11-28T13:22:37.176Z,100445.00
2022-11-28T13:25:23.834Z,100443.20
2022-11-28T13:28:07.972Z,100440.20
2022-11-28T13:30:47.850Z,100436.20
2022-11-28T13:33:37.196Z,100437.80
2022-11-28T13:39:18.564Z,100439.60
2022-11-28T13:42:28.298Z,100436.80
2022-11-28T13:45:01.473Z,100434.40
2022-11-28T13:47:37.182Z,100430.80
2022-11-28T13:50:39.325Z,100432.80
2022-11-28T13:53:28.683Z,100429.80
2022-11-28T13:56:27.741Z,100431.80
2022-11-28T13:59:02.903Z,100437.80
2022-11-28T14:01:49.766Z,100443.80
2022-11-28T14:04:22.811Z,100444.40
2022-11-28T14:07:00.138Z,100444.80
2022-11-28T14:09:44.802Z,100445.00
2022-11-28T14:12:26.141Z,100442.40
2022-11-28T14:15:23.177Z,100442.20
2022-11-28T14:18:31.463Z,100442.40
2022-11-28T14:21:17.952Z,100439.80
2022-11-28T14:23:59.233Z,100445.00
2022-11-28T14:26:37.365Z,100447.20
2022-11-28T14:29:22.661Z,100448.40
2022-11-28T14:32:22.180Z,100447.20
2022-11-28T14:34:51.019Z,100447.20
2022-11-28T14:37:56.267Z,100442.80
2022-11-28T14:41:11.849Z,100445.00
2022-11-28T14:43:46.926Z,100449.60
2022-11-28T14:46:32.705Z,100449.00
2022-11-28T14:49:27.193Z,100451.40
2022-11-28T14:52:41.198Z,100458.00
2022-11-28T14:55:25.939Z,100454.00
2022-11-28T14:58:03.127Z,100458.40
2022-11-28T15:00:47.643Z,100453.80
2022-11-28T15:03:37.276Z,100455.40
2022-11-28T15:06:19.208Z,100455.40
2022-11-28T15:09:04.613Z,100459.40
2022-11-28T15:12:08.611Z,100456.60
2022-11-28T15:14:43.730Z,100459.60
2022-11-28T15:17:21.070Z,100457.40
2022-11-28T15:19:54.949Z,100458.60
2022-11-28T15:22:42.824Z,100460.20
2022-11-28T15:25:25.281Z,100462.40
2022-11-28T15:28:00.333Z,100468.00
2022-11-28T15:30:34.193Z,100464.80
2022-11-28T15:33:07.244Z,100462.20
2022-11-28T15:35:40.145Z,100456.20
2022-11-28T15:38:20.103Z,100459.20
2022-11-28T15:40:55.853Z,100460.80
2022-11-28T15:43:30.757Z,100463.60
2022-11-28T15:46:06.034Z,100465.00
2022-11-28T15:48:48.283Z,100457.60
2022-11-28T15:51:30.541Z,100462.20
2022-11-28T15:54:04.864Z,100463.20
2022-11-28T15:56:38.619Z,100462.20
2022-11-28T15:59:13.769Z,100463.60
2022-11-28T16:01:47.395Z,100465.80
2022-11-28T16:04:25.124Z,100466.80
2022-11-28T16:07:00.311Z,100462.20
2022-11-28T16:09:36.156Z,100469.20
2022-11-28T16:12:15.706Z,100471.80
2022-11-28T16:14:49.647Z,100469.20
2022-11-28T16:17:27.299Z,100468.00
2022-11-28T16:20:00.641Z,100474.40
2022-11-28T16:22:37.789Z,100475.00
2022-11-28T16:25:24.491Z,100474.60
2022-11-28T16:27:57.825Z,100475.80
2022-11-28T16:30:47.637Z,100475.60
2022-11-28T16:33:42.231Z,100481.00
2022-11-28T16:36:27.372Z,100475.80
2022-11-28T16:39:14.596Z,100471.60
2022-11-28T16:41:52.233Z,100474.80
2022-11-28T16:44:26.687Z,100473.40
2022-11-28T16:47:00.571Z,100468.80
2022-11-28T16:49:40.636Z,100470.00
2022-11-28T16:52:47.184Z,100471.80
2022-11-28T16:55:46.825Z,100477.60
2022-11-28T16:58:23.463Z,100478.00
2022-11-28T17:01:06.516Z,100473.00
2022-11-28T17:03:51.760Z,100471.80
2022-11-28T17:06:34.224Z,100471.80
2022-11-28T17:09:08.280Z,100470.00
2022-11-28T17:11:45.052Z,100465.20
2022-11-28T17:14:17.917Z,100471.00
2022-11-28T17:16:50.755Z,100469.80
2022-11-28T17:19:23.306Z,100468.40
2022-11-28T17:21:58.845Z,100469.60
2022-11-28T17:24:35.649Z,100468.40
2022-11-28T17:27:09.170Z,100470.40
2022-11-28T17:29:42.698Z,100473.60
2022-11-28T17:32:16.986Z,100475.00
2022-11-28T17:34:49.589Z,100472.60
2022-11-28T17:37:22.374Z,100475.80
2022-11-28T17:40:12.457Z,100475.40
2022-11-28T17:42:45.061Z,100473.40
2022-11-28T17:45:18.247Z,100468.40
2022-11-28T17:47:50.825Z,100467.20
2022-11-28T17:50:23.486Z,100467.20
2022-11-28T17:52:56.360Z,100467.80
2022-11-28T17:55:29.142Z,100470.00
2022-11-28T17:58:01.769Z,100468.20
2022-11-28T18:00:34.336Z,100468.00
2022-11-28T18:03:07.791Z,100466.60
2022-11-28T18:05:43.564Z,100466.00
2022-11-28T18:08:21.923Z,100473.00
2022-11-28T18:11:04.931Z,100471.00
2022-11-28T18:13:41.512Z,100473.40
2022-11-28T18:16:15.329Z,100475.60
2022-11-28T18:18:48.781Z,100473.80
2022-11-28T18:21:22.048Z,100467.40
2022-11-28T18:23:54.985Z,100463.80
2022-11-28T18:26:29.077Z,100466.60
2022-11-28T18:29:03.972Z,100464.40
2022-11-28T18:31:38.613Z,100462.20
2022-11-28T18:34:12.370Z,100463.20
2022-11-28T18:36:45.350Z,100461.60
2022-11-28T18:39:18.160Z,100460.20
2022-11-28T18:41:51.083Z,100465.40
2022-11-28T18:44:24.140Z,100459.00
2022-11-28T18:46:57.176Z,100467.60
2022-11-28T18:49:30.128Z,100464.00
2022-11-28T18:52:03.126Z,100463.00
2022-11-28T18:54:38.591Z,100458.20
2022-11-28T18:57:12.196Z,100462.00
2022-11-28T18:59:52.878Z,100455.20
2022-11-28T19:02:28.027Z,100453.80
2022-11-28T19:05:01.361Z,100453.00
2022-11-28T19:07:33.943Z,100454.20
2022-11-28T19:10:07.446Z,100449.60
2022-11-28T19:12:41.326Z,100451.40
2022-11-28T19:15:14.396Z,100454.40
2022-11-28T19:17:47.113Z,100452.40
2022-11-28T19:20:20.145Z,100452.20
2022-11-28T19:22:53.555Z,100449.60
2022-11-28T19:25:27.372Z,100450.40
2022-11-28T19:28:00.148Z,100450.20
2022-11-28T19:30:33.119Z,100454.20
2022-11-28T19:33:06.590Z,100450.20
2022-11-28T19:35:39.424Z,100447.40
2022-11-28T19:38:12.187Z,100448.80
2022-11-28T19:40:45.182Z,100454.40
2022-11-28T19:43:17.775Z,100450.80
2022-11-28T19:45:59.422Z,100455.20
2022-11-28T19:48:34.759Z,100452.40
2022-11-28T19:51:09.466Z,100455.80
2022-11-28T19:53:45.031Z,100458.20
2022-11-28T19:56:20.266Z,100460.40
2022-11-28T19:58:53.286Z,100465.60
2022-11-28T20:01:27.085Z,100464.40
2022-11-28T20:04:00.558Z,100464.00
2022-11-28T20:06:35.336Z,100465.60
2022-11-28T20:09:12.624Z,100467.60
2022-11-28T20:11:47.809Z,100472.00
2022-11-28T20:14:22.364Z,100469.00
2022-11-28T20:16:55.787Z,100472.80
2022-11-28T20:19:29.236Z,100468.60
2022-11-28T20:22:02.566Z,100468.00
2022-11-28T20:24:35.459Z,100467.60
2022-11-28T20:27:08.731Z,100467.20
2022-11-28T20:29:41.632Z,100467.80
2022-11-28T20:32:14.634Z,100467.80
2022-11-28T20:34:48.247Z,100468.80
2022-11-28T20:37:21.099Z,100464.80
2022-11-28T20:39:53.895Z,100462.40
2022-11-28T20:42:26.651Z,100462.00
2022-11-28T20:44:59.133Z,100463.60
2022-11-28T20:47:34.603Z,100458.00
2022-11-28T20:50:09.615Z,100459.00
2022-11-28T20:52:42.255Z,100458.00
2022-11-28T20:55:15.512Z,100462.60
2022-11-28T20:57:48.394Z,100466.20
2022-11-28T21:00:26.618Z,100468.60
2022-11-28T21:02:59.535Z,100469.00
2022-11-28T21:05:32.103Z,100473.40
2022-11-28T21:08:04.989Z,100472.40
2022-11-28T21:10:38.706Z,100475.20
2022-11-28T21:13:11.441Z,100478.60
2022-11-28T21:15:46.733Z,100481.20
2022-11-28T21:18:19.536Z,100479.00
2022-11-28T21:20:53.046Z,100478.00
2022-11-28T21:23:25.750Z,100477.60
2022-11-28T21:25:58.324Z,100477.60
2022-11-28T21:28:30.845Z,100478.60
2022-11-28T21:31:07.598Z,100479.00
2022-11-28T21:33:40.358Z,100477.60
2022-11-28T21:36:15.391Z,100479.00
2022-11-28T21:38:52.034Z,100483.20
2022-11-28T21:41:28.538Z,100483.60
2022-11-28T21:44:02.275Z,100477.40
2022-11-28T21:46:34.866Z,100474.60
2022-11-28T21:49:07.438Z,100472.20
2022-11-28T21:51:43.393Z,100477.60
2022-11-28T21:54:16.556Z,100473.60
2022-11-28T21:56:50.368Z,100471.80
2022-11-28T21:59:23.821Z,100472.40
2022-11-28T22:01:56.611Z,100468.60
2022-11-28T22:04:29.278Z,100469.60
2022-11-28T22:07:01.807Z,100465.80
2022-11-28T22:09:34.911Z,100470.20
2022-11-28T22:12:09.055Z,100464.80
2022-11-28T22:14:41.588Z,100464.40
2022-11-28T22:17:14.369Z,100468.40
2022-11-28T22:19:47.666Z,100467.00
2022-11-28T22:22:20.289Z,100462.60
2022-11-28T22:24:52.827Z,100463.00
2022-11-28T22:27:25.629Z,100462.40
2022-11-28T22:29:58.792Z,100466.20
2022-11-28T22:32:34.447Z,100461.60
2022-11-28T22:35:09.430Z,100461.40
2022-11-28T22:37:42.226Z,100456.60
2022-11-28T22:40:17.501Z,100458.40
2022-11-28T22:42:50.121Z,100464.20
2022-11-28T22:45:23.036Z,100465.00
2022-11-28T22:47:55.789Z,100467.60
2022-11-28T22:50:28.332Z,100466.20
2022-11-28T22:53:00.914Z,100460.20
2022-11-28T22:55:35.665Z,100460.40
2022-11-28T22:58:08.524Z,100459.20
2022-11-28T23:00:41.382Z,100462.20
2022-11-28T23:03:14.293Z,100460.60
2022-11-28T23:05:49.299Z,100456.00
2022-11-28T23:08:24.060Z,100457.80
2022-11-28T23:10:57.286Z,100454.00
2022-11-28T23:13:30.132Z,100455.80
2022-11-28T23:16:15.213Z,100451.40
2022-11-28T23:18:50.430Z,100455.40
2022-11-28T23:21:24.916Z,100458.00
2022-11-28T23:23:57.752Z,100463.00
2022-11-28T23:26:33.919Z,100457.20
2022-11-28T23:29:08.631Z,100462.00
2022-11-28T23:31:42.824Z,100466.60
2022-11-28T23:34:16.419Z,100467.20
2022-11-28T23:36:49.762Z,100467.00
2022-11-28T23:39:24.327Z,100464.00
2022-11-28T23:41:59.043Z,100460.80
2022-11-28T23:44:31.612Z,100462.00
2022-11-28T23:47:04.332Z,100466.00
2022-11-28T23:49:36.910Z,100468.40
2022-11-28T23:52:09.772Z,100463.40
2022-11-28T23:54:42.484Z,100458.80
2022-11-28T23:57:15.407Z,100456.80
2022-11-28T23:59:47.910Z,100455.40
